Antonino, Kansas
Current Conditions -  °F | °C
As of 10:35 AM on Saturday 22 Nov 2014 (Local Time) from KHYS Reporting Station
Clear Clear  
Wind Chill: 41°   Ceiling: Unl
Heat Index: 46°   Visibility: 10mi
Dew Point: 34°   Wind: 12mph
Humidity: 62%   Direction: 180°S
Pressure: 29.83"   Gusts: NA
Location:  38.8338°N, 99.3297°W
Report Text: KHYS 221635Z AUTO 18010KT 10SM CLR 08/01 A2983 RMK AO1
Loading
Personal Weather Stations






























Interactive Weather Map New forecast layout! Learn more

10-Day Weather Forecast

Advertisements
Track Severe Weather on mobile